sensor_id;sensor_type;location;lat;lon;timestamp;P1;durP1;ratioP1;P2;durP2;ratioP2
11000;SDS011;5553;48.506;8.870;2022-11-20T00:01:30;5.73;;;2.80;;
11000;SDS011;5553;48.506;8.870;2022-11-20T00:03:59;3.83;;;3.20;;
11000;SDS011;5553;48.506;8.870;2022-11-20T00:06:30;5.03;;;3.30;;
11000;SDS011;5553;48.506;8.870;2022-11-20T00:08:59;7.10;;;4.43;;
11000;SDS011;5553;48.506;8.870;2022-11-20T00:11:28;5.40;;;3.73;;
11000;SDS011;5553;48.506;8.870;2022-11-20T00:13:59;6.07;;;3.97;;
11000;SDS011;5553;48.506;8.870;2022-11-20T00:16:30;4.60;;;4.10;;
11000;SDS011;5553;48.506;8.870;2022-11-20T00:18:59;8.50;;;4.83;;
11000;SDS011;5553;48.506;8.870;2022-11-20T00:21:31;5.73;;;4.30;;
11000;SDS011;5553;48.506;8.870;2022-11-20T00:23:59;5.17;;;3.70;;
11000;SDS011;5553;48.506;8.870;2022-11-20T00:26:28;3.77;;;3.37;;
11000;SDS011;5553;48.506;8.870;2022-11-20T00:28:57;6.00;;;3.73;;
11000;SDS011;5553;48.506;8.870;2022-11-20T00:31:29;7.93;;;4.30;;
11000;SDS011;5553;48.506;8.870;2022-11-20T00:33:58;6.70;;;4.10;;
11000;SDS011;5553;48.506;8.870;2022-11-20T00:36:27;5.30;;;3.63;;
11000;SDS011;5553;48.506;8.870;2022-11-20T00:39:00;6.83;;;4.47;;
11000;SDS011;5553;48.506;8.870;2022-11-20T00:41:29;5.20;;;4.40;;
11000;SDS011;5553;48.506;8.870;2022-11-20T00:43:57;4.97;;;3.93;;
11000;SDS011;5553;48.506;8.870;2022-11-20T00:46:26;6.97;;;4.13;;
11000;SDS011;5553;48.506;8.870;2022-11-20T00:48:55;9.30;;;5.07;;
11000;SDS011;5553;48.506;8.870;2022-11-20T00:51:24;7.40;;;4.10;;
11000;SDS011;5553;48.506;8.870;2022-11-20T00:53:57;6.80;;;4.60;;
11000;SDS011;5553;48.506;8.870;2022-11-20T00:56:27;8.20;;;3.67;;
11000;SDS011;5553;48.506;8.870;2022-11-20T00:58:58;6.37;;;4.33;;
11000;SDS011;5553;48.506;8.870;2022-11-20T01:01:27;6.17;;;4.80;;
11000;SDS011;5553;48.506;8.870;2022-11-20T01:03:57;6.13;;;4.07;;
11000;SDS011;5553;48.506;8.870;2022-11-20T01:06:27;6.30;;;4.20;;
11000;SDS011;5553;48.506;8.870;2022-11-20T01:09:00;8.10;;;4.60;;
11000;SDS011;5553;48.506;8.870;2022-11-20T01:11:30;6.43;;;4.30;;
11000;SDS011;5553;48.506;8.870;2022-11-20T01:14:00;6.20;;;4.53;;
11000;SDS011;5553;48.506;8.870;2022-11-20T01:16:31;6.80;;;4.77;;
11000;SDS011;5553;48.506;8.870;2022-11-20T01:19:01;7.10;;;4.90;;
11000;SDS011;5553;48.506;8.870;2022-11-20T01:21:32;4.73;;;3.97;;
11000;SDS011;5553;48.506;8.870;2022-11-20T01:24:05;7.00;;;4.10;;
11000;SDS011;5553;48.506;8.870;2022-11-20T01:26:35;7.80;;;5.33;;
11000;SDS011;5553;48.506;8.870;2022-11-20T01:29:05;6.63;;;4.90;;
11000;SDS011;5553;48.506;8.870;2022-11-20T01:31:35;5.30;;;4.33;;
11000;SDS011;5553;48.506;8.870;2022-11-20T01:34:05;5.60;;;4.03;;
11000;SDS011;5553;48.506;8.870;2022-11-20T01:36:35;5.73;;;4.10;;
11000;SDS011;5553;48.506;8.870;2022-11-20T01:39:09;6.50;;;4.40;;
11000;SDS011;5553;48.506;8.870;2022-11-20T01:41:40;5.90;;;4.93;;
11000;SDS011;5553;48.506;8.870;2022-11-20T01:44:22;5.40;;;4.20;;
11000;SDS011;5553;48.506;8.870;2022-11-20T01:47:11;7.80;;;5.07;;
11000;SDS011;5553;48.506;8.870;2022-11-20T01:49:44;8.63;;;5.20;;
11000;SDS011;5553;48.506;8.870;2022-11-20T01:52:17;6.40;;;4.87;;
11000;SDS011;5553;48.506;8.870;2022-11-20T01:54:51;7.17;;;4.67;;
11000;SDS011;5553;48.506;8.870;2022-11-20T01:57:24;9.07;;;4.73;;
11000;SDS011;5553;48.506;8.870;2022-11-20T01:59:57;6.73;;;4.27;;
11000;SDS011;5553;48.506;8.870;2022-11-20T02:02:29;9.50;;;4.90;;
11000;SDS011;5553;48.506;8.870;2022-11-20T02:04:58;8.07;;;4.00;;
11000;SDS011;5553;48.506;8.870;2022-11-20T02:07:32;8.00;;;3.90;;
11000;SDS011;5553;48.506;8.870;2022-11-20T02:10:03;7.23;;;4.97;;
11000;SDS011;5553;48.506;8.870;2022-11-20T02:12:32;5.70;;;4.13;;
11000;SDS011;5553;48.506;8.870;2022-11-20T02:15:13;7.30;;;4.43;;
11000;SDS011;5553;48.506;8.870;2022-11-20T02:17:41;6.13;;;4.40;;
11000;SDS011;5553;48.506;8.870;2022-11-20T02:20:10;6.73;;;5.40;;
11000;SDS011;5553;48.506;8.870;2022-11-20T02:22:41;6.03;;;4.20;;
11000;SDS011;5553;48.506;8.870;2022-11-20T02:25:18;5.10;;;4.00;;
11000;SDS011;5553;48.506;8.870;2022-11-20T02:27:47;6.20;;;4.70;;
11000;SDS011;5553;48.506;8.870;2022-11-20T02:30:16;8.47;;;4.63;;
11000;SDS011;5553;48.506;8.870;2022-11-20T02:32:45;7.50;;;4.00;;
11000;SDS011;5553;48.506;8.870;2022-11-20T02:38:10;7.70;;;4.20;;
11000;SDS011;5553;48.506;8.870;2022-11-20T02:40:41;5.60;;;3.87;;
11000;SDS011;5553;48.506;8.870;2022-11-20T02:43:10;9.30;;;4.20;;
11000;SDS011;5553;48.506;8.870;2022-11-20T02:45:38;8.43;;;3.57;;
11000;SDS011;5553;48.506;8.870;2022-11-20T02:48:07;6.60;;;3.70;;
11000;SDS011;5553;48.506;8.870;2022-11-20T02:50:36;5.70;;;3.73;;
11000;SDS011;5553;48.506;8.870;2022-11-20T02:53:06;5.20;;;3.87;;
11000;SDS011;5553;48.506;8.870;2022-11-20T02:55:35;5.57;;;3.60;;
11000;SDS011;5553;48.506;8.870;2022-11-20T02:58:06;3.97;;;3.07;;
11000;SDS011;5553;48.506;8.870;2022-11-20T03:00:35;5.17;;;4.67;;
11000;SDS011;5553;48.506;8.870;2022-11-20T03:03:03;5.10;;;3.20;;
11000;SDS011;5553;48.506;8.870;2022-11-20T03:05:32;7.13;;;3.70;;
11000;SDS011;5553;48.506;8.870;2022-11-20T03:08:00;5.17;;;4.30;;
11000;SDS011;5553;48.506;8.870;2022-11-20T03:10:28;4.20;;;3.67;;
11000;SDS011;5553;48.506;8.870;2022-11-20T03:12:57;6.90;;;4.53;;
11000;SDS011;5553;48.506;8.870;2022-11-20T03:15:27;4.97;;;3.57;;
11000;SDS011;5553;48.506;8.870;2022-11-20T03:17:56;6.97;;;3.70;;
11000;SDS011;5553;48.506;8.870;2022-11-20T03:20:24;5.80;;;3.80;;
11000;SDS011;5553;48.506;8.870;2022-11-20T03:22:53;8.00;;;4.40;;
11000;SDS011;5553;48.506;8.870;2022-11-20T03:25:22;5.17;;;3.60;;
11000;SDS011;5553;48.506;8.870;2022-11-20T03:27:50;6.87;;;4.33;;
11000;SDS011;5553;48.506;8.870;2022-11-20T03:30:19;8.13;;;3.83;;
11000;SDS011;5553;48.506;8.870;2022-11-20T03:32:52;6.03;;;3.40;;
11000;SDS011;5553;48.506;8.870;2022-11-20T03:35:21;5.30;;;3.47;;
11000;SDS011;5553;48.506;8.870;2022-11-20T03:37:49;6.03;;;4.23;;
11000;SDS011;5553;48.506;8.870;2022-11-20T03:40:18;4.33;;;3.40;;
11000;SDS011;5553;48.506;8.870;2022-11-20T03:42:46;6.70;;;3.60;;
11000;SDS011;5553;48.506;8.870;2022-11-20T03:45:15;3.97;;;3.60;;
11000;SDS011;5553;48.506;8.870;2022-11-20T03:47:45;5.37;;;4.07;;
11000;SDS011;5553;48.506;8.870;2022-11-20T03:50:16;3.67;;;3.37;;
11000;SDS011;5553;48.506;8.870;2022-11-20T03:52:45;4.40;;;3.53;;
11000;SDS011;5553;48.506;8.870;2022-11-20T03:55:13;4.43;;;3.70;;
11000;SDS011;5553;48.506;8.870;2022-11-20T03:57:42;4.87;;;3.63;;
11000;SDS011;5553;48.506;8.870;2022-11-20T04:00:11;5.17;;;4.00;;
11000;SDS011;5553;48.506;8.870;2022-11-20T04:02:40;5.67;;;3.77;;
11000;SDS011;5553;48.506;8.870;2022-11-20T04:05:08;4.40;;;3.73;;
11000;SDS011;5553;48.506;8.870;2022-11-20T04:07:39;4.33;;;3.30;;
11000;SDS011;5553;48.506;8.870;2022-11-20T04:10:08;5.10;;;3.57;;
11000;SDS011;5553;48.506;8.870;2022-11-20T04:12:36;6.17;;;3.37;;
11000;SDS011;5553;48.506;8.870;2022-11-20T04:15:05;4.20;;;3.80;;
11000;SDS011;5553;48.506;8.870;2022-11-20T04:17:34;4.67;;;3.50;;
11000;SDS011;5553;48.506;8.870;2022-11-20T04:20:03;5.00;;;3.13;;
11000;SDS011;5553;48.506;8.870;2022-11-20T04:22:32;5.20;;;3.87;;
11000;SDS011;5553;48.506;8.870;2022-11-20T04:25:03;4.40;;;3.33;;
11000;SDS011;5553;48.506;8.870;2022-11-20T04:27:32;4.60;;;3.40;;
11000;SDS011;5553;48.506;8.870;2022-11-20T04:30:00;6.10;;;3.63;;
11000;SDS011;5553;48.506;8.870;2022-11-20T04:32:28;4.20;;;3.20;;
11000;SDS011;5553;48.506;8.870;2022-11-20T04:34:57;4.87;;;3.40;;
11000;SDS011;5553;48.506;8.870;2022-11-20T04:37:25;3.90;;;3.40;;
11000;SDS011;5553;48.506;8.870;2022-11-20T04:39:53;3.90;;;3.10;;
11000;SDS011;5553;48.506;8.870;2022-11-20T04:42:25;5.27;;;3.33;;
11000;SDS011;5553;48.506;8.870;2022-11-20T04:44:56;4.40;;;3.20;;
11000;SDS011;5553;48.506;8.870;2022-11-20T04:47:25;3.90;;;3.50;;
11000;SDS011;5553;48.506;8.870;2022-11-20T04:49:53;4.93;;;3.77;;
11000;SDS011;5553;48.506;8.870;2022-11-20T04:52:21;6.70;;;3.47;;
11000;SDS011;5553;48.506;8.870;2022-11-20T04:54:50;7.20;;;3.57;;
11000;SDS011;5553;48.506;8.870;2022-11-20T04:57:19;6.17;;;3.63;;
11000;SDS011;5553;48.506;8.870;2022-11-20T04:59:50;3.43;;;3.13;;
11000;SDS011;5553;48.506;8.870;2022-11-20T05:02:19;3.70;;;2.90;;
11000;SDS011;5553;48.506;8.870;2022-11-20T05:04:48;3.57;;;2.33;;
11000;SDS011;5553;48.506;8.870;2022-11-20T05:07:16;3.47;;;2.83;;
11000;SDS011;5553;48.506;8.870;2022-11-20T05:09:44;3.10;;;2.60;;
11000;SDS011;5553;48.506;8.870;2022-11-20T05:12:13;4.20;;;2.90;;
11000;SDS011;5553;48.506;8.870;2022-11-20T05:14:41;4.07;;;3.20;;
11000;SDS011;5553;48.506;8.870;2022-11-20T05:17:13;5.80;;;2.90;;
11000;SDS011;5553;48.506;8.870;2022-11-20T05:19:41;5.23;;;3.77;;
11000;SDS011;5553;48.506;8.870;2022-11-20T05:22:09;5.60;;;2.80;;
11000;SDS011;5553;48.506;8.870;2022-11-20T05:24:38;4.60;;;3.40;;
11000;SDS011;5553;48.506;8.870;2022-11-20T05:27:06;3.50;;;2.73;;
11000;SDS011;5553;48.506;8.870;2022-11-20T05:29:34;3.80;;;2.87;;
11000;SDS011;5553;48.506;8.870;2022-11-20T05:32:03;7.23;;;3.00;;
11000;SDS011;5553;48.506;8.870;2022-11-20T05:34:36;4.33;;;2.93;;
11000;SDS011;5553;48.506;8.870;2022-11-20T05:37:04;3.73;;;2.73;;
11000;SDS011;5553;48.506;8.870;2022-11-20T05:39:33;3.20;;;2.30;;
11000;SDS011;5553;48.506;8.870;2022-11-20T05:42:01;4.37;;;3.33;;
11000;SDS011;5553;48.506;8.870;2022-11-20T05:44:42;4.30;;;3.90;;
11000;SDS011;5553;48.506;8.870;2022-11-20T05:47:10;3.60;;;3.27;;
11000;SDS011;5553;48.506;8.870;2022-11-20T05:49:41;2.83;;;2.40;;
11000;SDS011;5553;48.506;8.870;2022-11-20T05:52:09;3.23;;;2.50;;
11000;SDS011;5553;48.506;8.870;2022-11-20T05:54:38;6.47;;;2.83;;
11000;SDS011;5553;48.506;8.870;2022-11-20T05:57:06;19.33;;;3.40;;
11000;SDS011;5553;48.506;8.870;2022-11-20T05:59:34;4.97;;;2.50;;
11000;SDS011;5553;48.506;8.870;2022-11-20T06:02:03;4.20;;;2.60;;
11000;SDS011;5553;48.506;8.870;2022-11-20T06:04:31;4.63;;;2.90;;
11000;SDS011;5553;48.506;8.870;2022-11-20T06:07:04;7.43;;;2.70;;
11000;SDS011;5553;48.506;8.870;2022-11-20T06:09:32;4.10;;;2.57;;
11000;SDS011;5553;48.506;8.870;2022-11-20T06:12:01;5.03;;;2.90;;
11000;SDS011;5553;48.506;8.870;2022-11-20T06:14:29;3.07;;;2.67;;
11000;SDS011;5553;48.506;8.870;2022-11-20T06:16:58;3.90;;;2.87;;
11000;SDS011;5553;48.506;8.870;2022-11-20T06:19:26;3.37;;;2.47;;
11000;SDS011;5553;48.506;8.870;2022-11-20T06:21:55;5.73;;;3.30;;
11000;SDS011;5553;48.506;8.870;2022-11-20T06:24:26;5.93;;;3.30;;
11000;SDS011;5553;48.506;8.870;2022-11-20T06:26:54;3.47;;;3.10;;
11000;SDS011;5553;48.506;8.870;2022-11-20T06:29:22;5.07;;;3.60;;
11000;SDS011;5553;48.506;8.870;2022-11-20T06:31:50;3.17;;;2.83;;
11000;SDS011;5553;48.506;8.870;2022-11-20T06:34:19;4.40;;;2.90;;
11000;SDS011;5553;48.506;8.870;2022-11-20T06:36:47;6.73;;;3.37;;
11000;SDS011;5553;48.506;8.870;2022-11-20T06:39:15;3.80;;;2.80;;
11000;SDS011;5553;48.506;8.870;2022-11-20T06:41:46;3.97;;;2.80;;
11000;SDS011;5553;48.506;8.870;2022-11-20T06:44:15;4.40;;;3.10;;
11000;SDS011;5553;48.506;8.870;2022-11-20T06:46:43;3.77;;;2.60;;
11000;SDS011;5553;48.506;8.870;2022-11-20T06:49:11;3.37;;;2.40;;
11000;SDS011;5553;48.506;8.870;2022-11-20T06:51:40;3.53;;;2.40;;
11000;SDS011;5553;48.506;8.870;2022-11-20T06:54:08;2.87;;;2.37;;
11000;SDS011;5553;48.506;8.870;2022-11-20T06:56:36;3.13;;;2.50;;
11000;SDS011;5553;48.506;8.870;2022-11-20T06:59:07;3.83;;;2.93;;
11000;SDS011;5553;48.506;8.870;2022-11-20T07:01:35;7.60;;;3.00;;
11000;SDS011;5553;48.506;8.870;2022-11-20T07:04:04;5.63;;;3.43;;
11000;SDS011;5553;48.506;8.870;2022-11-20T07:06:32;3.40;;;2.17;;
11000;SDS011;5553;48.506;8.870;2022-11-20T07:09:01;4.23;;;2.60;;
11000;SDS011;5553;48.506;8.870;2022-11-20T07:11:29;3.10;;;2.80;;
11000;SDS011;5553;48.506;8.870;2022-11-20T07:13:58;3.40;;;2.33;;
11000;SDS011;5553;48.506;8.870;2022-11-20T07:16:28;5.80;;;2.60;;
11000;SDS011;5553;48.506;8.870;2022-11-20T07:18:57;4.03;;;2.53;;
11000;SDS011;5553;48.506;8.870;2022-11-20T07:21:25;2.70;;;1.90;;
11000;SDS011;5553;48.506;8.870;2022-11-20T07:23:54;6.83;;;2.73;;
11000;SDS011;5553;48.506;8.870;2022-11-20T07:26:22;2.23;;;1.80;;
11000;SDS011;5553;48.506;8.870;2022-11-20T07:28:51;3.60;;;2.43;;
11000;SDS011;5553;48.506;8.870;2022-11-20T07:31:19;1.67;;;1.57;;
11000;SDS011;5553;48.506;8.870;2022-11-20T07:33:50;3.80;;;2.30;;
11000;SDS011;5553;48.506;8.870;2022-11-20T07:36:18;3.53;;;1.70;;
11000;SDS011;5553;48.506;8.870;2022-11-20T07:38:47;2.10;;;1.40;;
11000;SDS011;5553;48.506;8.870;2022-11-20T07:41:15;2.00;;;1.90;;
11000;SDS011;5553;48.506;8.870;2022-11-20T07:43:43;1.80;;;1.40;;
11000;SDS011;5553;48.506;8.870;2022-11-20T07:46:12;2.20;;;1.57;;
11000;SDS011;5553;48.506;8.870;2022-11-20T07:48:40;1.80;;;1.70;;
11000;SDS011;5553;48.506;8.870;2022-11-20T07:51:11;3.00;;;1.80;;
11000;SDS011;5553;48.506;8.870;2022-11-20T07:53:39;2.67;;;1.60;;
11000;SDS011;5553;48.506;8.870;2022-11-20T07:56:08;1.60;;;1.30;;
11000;SDS011;5553;48.506;8.870;2022-11-20T07:58:36;2.20;;;1.50;;
11000;SDS011;5553;48.506;8.870;2022-11-20T08:01:04;1.77;;;1.50;;
11000;SDS011;5553;48.506;8.870;2022-11-20T08:03:34;6.13;;;1.50;;
11000;SDS011;5553;48.506;8.870;2022-11-20T08:06:03;2.30;;;1.43;;
11000;SDS011;5553;48.506;8.870;2022-11-20T08:08:34;1.80;;;1.17;;
11000;SDS011;5553;48.506;8.870;2022-11-20T08:11:04;3.23;;;1.70;;
11000;SDS011;5553;48.506;8.870;2022-11-20T08:13:45;3.53;;;1.23;;
11000;SDS011;5553;48.506;8.870;2022-11-20T08:16:26;2.40;;;1.17;;
11000;SDS011;5553;48.506;8.870;2022-11-20T08:18:54;2.10;;;1.40;;
11000;SDS011;5553;48.506;8.870;2022-11-20T08:21:22;1.43;;;1.30;;
11000;SDS011;5553;48.506;8.870;2022-11-20T08:23:53;1.60;;;1.27;;
11000;SDS011;5553;48.506;8.870;2022-11-20T08:26:22;1.50;;;1.40;;
11000;SDS011;5553;48.506;8.870;2022-11-20T08:28:52;1.40;;;1.30;;
11000;SDS011;5553;48.506;8.870;2022-11-20T08:31:22;1.00;;;0.90;;
11000;SDS011;5553;48.506;8.870;2022-11-20T08:33:50;5.27;;;1.27;;
11000;SDS011;5553;48.506;8.870;2022-11-20T08:36:20;3.10;;;1.43;;
11000;SDS011;5553;48.506;8.870;2022-11-20T08:38:49;1.77;;;1.30;;
11000;SDS011;5553;48.506;8.870;2022-11-20T08:41:21;1.90;;;1.50;;
11000;SDS011;5553;48.506;8.870;2022-11-20T08:43:54;1.37;;;1.27;;
11000;SDS011;5553;48.506;8.870;2022-11-20T08:46:24;1.50;;;1.40;;
11000;SDS011;5553;48.506;8.870;2022-11-20T08:48:54;1.33;;;1.20;;
11000;SDS011;5553;48.506;8.870;2022-11-20T08:51:23;1.07;;;0.97;;
11000;SDS011;5553;48.506;8.870;2022-11-20T08:53:51;2.30;;;1.47;;
11000;SDS011;5553;48.506;8.870;2022-11-20T08:56:22;1.67;;;1.10;;
11000;SDS011;5553;48.506;8.870;2022-11-20T08:58:50;2.53;;;1.33;;
11000;SDS011;5553;48.506;8.870;2022-11-20T09:01:20;1.50;;;1.40;;
11000;SDS011;5553;48.506;8.870;2022-11-20T09:03:50;5.93;;;1.93;;
11000;SDS011;5553;48.506;8.870;2022-11-20T09:06:18;1.50;;;1.13;;
11000;SDS011;5553;48.506;8.870;2022-11-20T09:08:46;1.10;;;0.83;;
11000;SDS011;5553;48.506;8.870;2022-11-20T09:11:15;3.43;;;1.00;;
11000;SDS011;5553;48.506;8.870;2022-11-20T09:13:45;1.00;;;0.63;;
11000;SDS011;5553;48.506;8.870;2022-11-20T09:16:14;1.90;;;1.00;;
11000;SDS011;5553;48.506;8.870;2022-11-20T09:18:42;1.00;;;1.00;;
11000;SDS011;5553;48.506;8.870;2022-11-20T09:21:12;1.20;;;1.00;;
11000;SDS011;5553;48.506;8.870;2022-11-20T09:23:41;0.87;;;0.60;;
11000;SDS011;5553;48.506;8.870;2022-11-20T09:26:10;3.60;;;1.00;;
11000;SDS011;5553;48.506;8.870;2022-11-20T09:28:40;1.40;;;1.03;;
11000;SDS011;5553;48.506;8.870;2022-11-20T09:31:13;0.87;;;0.60;;
11000;SDS011;5553;48.506;8.870;2022-11-20T09:33:47;1.37;;;1.27;;
11000;SDS011;5553;48.506;8.870;2022-11-20T09:36:15;1.00;;;0.90;;
11000;SDS011;5553;48.506;8.870;2022-11-20T09:38:44;0.87;;;0.70;;
11000;SDS011;5553;48.506;8.870;2022-11-20T09:41:19;1.00;;;0.80;;
11000;SDS011;5553;48.506;8.870;2022-11-20T09:44:05;1.47;;;1.00;;
11000;SDS011;5553;48.506;8.870;2022-11-20T09:46:50;1.07;;;1.00;;
11000;SDS011;5553;48.506;8.870;2022-11-20T09:49:27;0.70;;;0.70;;
11000;SDS011;5553;48.506;8.870;2022-11-20T09:52:06;0.60;;;0.57;;
11000;SDS011;5553;48.506;8.870;2022-11-20T09:54:42;0.60;;;0.60;;
11000;SDS011;5553;48.506;8.870;2022-11-20T09:57:11;0.60;;;0.60;;
11000;SDS011;5553;48.506;8.870;2022-11-20T09:59:43;1.40;;;0.80;;
11000;SDS011;5553;48.506;8.870;2022-11-20T10:02:24;0.80;;;0.80;;
11000;SDS011;5553;48.506;8.870;2022-11-20T10:04:58;0.60;;;0.60;;
11000;SDS011;5553;48.506;8.870;2022-11-20T10:07:32;1.03;;;0.60;;
11000;SDS011;5553;48.506;8.870;2022-11-20T10:10:13;1.40;;;0.97;;
11000;SDS011;5553;48.506;8.870;2022-11-20T10:12:48;1.37;;;0.70;;
11000;SDS011;5553;48.506;8.870;2022-11-20T10:15:29;0.67;;;0.50;;
11000;SDS011;5553;48.506;8.870;2022-11-20T10:18:08;0.77;;;0.77;;
11000;SDS011;5553;48.506;8.870;2022-11-20T10:20:46;0.87;;;0.60;;
11000;SDS011;5553;48.506;8.870;2022-11-20T10:23:25;0.60;;;0.50;;
11000;SDS011;5553;48.506;8.870;2022-11-20T10:26:04;0.87;;;0.83;;
11000;SDS011;5553;48.506;8.870;2022-11-20T10:28:47;0.63;;;0.63;;
11000;SDS011;5553;48.506;8.870;2022-11-20T10:31:30;1.07;;;0.77;;
11000;SDS011;5553;48.506;8.870;2022-11-20T10:34:05;0.90;;;0.80;;
11000;SDS011;5553;48.506;8.870;2022-11-20T10:36:36;0.90;;;0.80;;
11000;SDS011;5553;48.506;8.870;2022-11-20T10:39:12;1.10;;;0.70;;
11000;SDS011;5553;48.506;8.870;2022-11-20T10:41:46;0.77;;;0.70;;
11000;SDS011;5553;48.506;8.870;2022-11-20T10:44:19;0.80;;;0.77;;
11000;SDS011;5553;48.506;8.870;2022-11-20T10:47:01;0.70;;;0.63;;
11000;SDS011;5553;48.506;8.870;2022-11-20T10:49:33;1.50;;;1.00;;
11000;SDS011;5553;48.506;8.870;2022-11-20T10:52:04;1.30;;;0.80;;
11000;SDS011;5553;48.506;8.870;2022-11-20T10:54:40;0.80;;;0.73;;
11000;SDS011;5553;48.506;8.870;2022-11-20T10:57:18;1.60;;;0.97;;
11000;SDS011;5553;48.506;8.870;2022-11-20T11:00:00;1.33;;;0.90;;
11000;SDS011;5553;48.506;8.870;2022-11-20T11:02:34;0.90;;;0.70;;
11000;SDS011;5553;48.506;8.870;2022-11-20T11:05:12;0.97;;;0.97;;
11000;SDS011;5553;48.506;8.870;2022-11-20T11:07:50;1.60;;;0.97;;
11000;SDS011;5553;48.506;8.870;2022-11-20T11:10:24;1.17;;;1.07;;
11000;SDS011;5553;48.506;8.870;2022-11-20T11:12:59;6.23;;;1.13;;
11000;SDS011;5553;48.506;8.870;2022-11-20T11:15:28;1.17;;;0.63;;
11000;SDS011;5553;48.506;8.870;2022-11-20T11:17:57;0.83;;;0.60;;
11000;SDS011;5553;48.506;8.870;2022-11-20T11:20:28;4.03;;;0.90;;
11000;SDS011;5553;48.506;8.870;2022-11-20T11:22:57;0.90;;;0.80;;
11000;SDS011;5553;48.506;8.870;2022-11-20T11:25:28;1.50;;;0.63;;
11000;SDS011;5553;48.506;8.870;2022-11-20T11:27:59;0.90;;;0.70;;
11000;SDS011;5553;48.506;8.870;2022-11-20T11:30:29;1.80;;;0.77;;
11000;SDS011;5553;48.506;8.870;2022-11-20T11:33:09;1.20;;;0.90;;
11000;SDS011;5553;48.506;8.870;2022-11-20T11:35:46;1.10;;;0.67;;
11000;SDS011;5553;48.506;8.870;2022-11-20T11:38:19;1.53;;;0.90;;
11000;SDS011;5553;48.506;8.870;2022-11-20T11:40:52;0.70;;;0.70;;
11000;SDS011;5553;48.506;8.870;2022-11-20T11:43:22;1.70;;;0.77;;
11000;SDS011;5553;48.506;8.870;2022-11-20T11:46:19;2.20;;;1.00;;
11000;SDS011;5553;48.506;8.870;2022-11-20T11:48:57;1.33;;;1.20;;
11000;SDS011;5553;48.506;8.870;2022-11-20T11:51:31;2.10;;;1.20;;
11000;SDS011;5553;48.506;8.870;2022-11-20T11:54:05;1.60;;;1.23;;
11000;SDS011;5553;48.506;8.870;2022-11-20T11:56:43;1.40;;;1.13;;
11000;SDS011;5553;48.506;8.870;2022-11-20T11:59:14;1.80;;;0.80;;
11000;SDS011;5553;48.506;8.870;2022-11-20T12:01:50;3.50;;;1.27;;
11000;SDS011;5553;48.506;8.870;2022-11-20T12:04:36;2.60;;;1.00;;
11000;SDS011;5553;48.506;8.870;2022-11-20T12:07:13;0.60;;;0.57;;
11000;SDS011;5553;48.506;8.870;2022-11-20T12:09:49;1.40;;;0.60;;
11000;SDS011;5553;48.506;8.870;2022-11-20T12:12:22;5.00;;;0.70;;
11000;SDS011;5553;48.506;8.870;2022-11-20T12:14:57;0.67;;;0.53;;
11000;SDS011;5553;48.506;8.870;2022-11-20T12:17:26;1.30;;;0.57;;
11000;SDS011;5553;48.506;8.870;2022-11-20T12:19:55;0.60;;;0.50;;
11000;SDS011;5553;48.506;8.870;2022-11-20T12:22:29;0.67;;;0.47;;
11000;SDS011;5553;48.506;8.870;2022-11-20T12:25:03;0.70;;;0.70;;
11000;SDS011;5553;48.506;8.870;2022-11-20T12:27:44;2.97;;;0.50;;
11000;SDS011;5553;48.506;8.870;2022-11-20T12:30:21;2.93;;;0.53;;
11000;SDS011;5553;48.506;8.870;2022-11-20T12:35:52;0.77;;;0.77;;
11000;SDS011;5553;48.506;8.870;2022-11-20T12:38:39;2.33;;;0.57;;
11000;SDS011;5553;48.506;8.870;2022-11-20T12:41:22;1.30;;;1.00;;
11000;SDS011;5553;48.506;8.870;2022-11-20T12:44:21;2.57;;;0.90;;
11000;SDS011;5553;48.506;8.870;2022-11-20T12:47:14;0.70;;;0.67;;
11000;SDS011;5553;48.506;8.870;2022-11-20T12:49:51;1.03;;;0.93;;
11000;SDS011;5553;48.506;8.870;2022-11-20T12:52:35;1.67;;;0.90;;
11000;SDS011;5553;48.506;8.870;2022-11-20T12:55:14;3.23;;;1.47;;
11000;SDS011;5553;48.506;8.870;2022-11-20T12:57:54;1.90;;;0.90;;
11000;SDS011;5553;48.506;8.870;2022-11-20T13:00:26;1.30;;;0.70;;
11000;SDS011;5553;48.506;8.870;2022-11-20T13:05:47;2.43;;;1.07;;
11000;SDS011;5553;48.506;8.870;2022-11-20T13:08:23;1.83;;;0.97;;
11000;SDS011;5553;48.506;8.870;2022-11-20T13:10:58;1.00;;;0.83;;
11000;SDS011;5553;48.506;8.870;2022-11-20T13:13:35;2.93;;;1.20;;
11000;SDS011;5553;48.506;8.870;2022-11-20T13:16:14;0.70;;;0.70;;
11000;SDS011;5553;48.506;8.870;2022-11-20T13:18:47;5.53;;;1.03;;
11000;SDS011;5553;48.506;8.870;2022-11-20T13:21:17;0.90;;;0.83;;
11000;SDS011;5553;48.506;8.870;2022-11-20T13:23:46;1.90;;;1.10;;
11000;SDS011;5553;48.506;8.870;2022-11-20T13:26:18;2.00;;;0.60;;
11000;SDS011;5553;48.506;8.870;2022-11-20T13:28:59;1.80;;;1.00;;
11000;SDS011;5553;48.506;8.870;2022-11-20T13:31:31;1.80;;;1.03;;
11000;SDS011;5553;48.506;8.870;2022-11-20T13:34:02;1.27;;;1.17;;
11000;SDS011;5553;48.506;8.870;2022-11-20T13:36:33;1.57;;;1.10;;
11000;SDS011;5553;48.506;8.870;2022-11-20T13:39:01;1.10;;;0.97;;
11000;SDS011;5553;48.506;8.870;2022-11-20T13:41:34;3.00;;;1.10;;
11000;SDS011;5553;48.506;8.870;2022-11-20T13:44:06;3.10;;;1.50;;
11000;SDS011;5553;48.506;8.870;2022-11-20T13:46:41;1.20;;;1.10;;
11000;SDS011;5553;48.506;8.870;2022-11-20T13:49:14;1.47;;;1.10;;
11000;SDS011;5553;48.506;8.870;2022-11-20T13:51:46;2.20;;;0.90;;
11000;SDS011;5553;48.506;8.870;2022-11-20T13:54:28;4.50;;;1.10;;
11000;SDS011;5553;48.506;8.870;2022-11-20T13:57:25;4.20;;;1.17;;
11000;SDS011;5553;48.506;8.870;2022-11-20T14:00:14;1.00;;;0.80;;
11000;SDS011;5553;48.506;8.870;2022-11-20T14:02:47;1.80;;;1.10;;
11000;SDS011;5553;48.506;8.870;2022-11-20T14:05:27;1.13;;;0.97;;
11000;SDS011;5553;48.506;8.870;2022-11-20T14:07:58;1.50;;;1.40;;
11000;SDS011;5553;48.506;8.870;2022-11-20T14:10:27;1.20;;;1.10;;
11000;SDS011;5553;48.506;8.870;2022-11-20T14:13:09;0.90;;;0.90;;
11000;SDS011;5553;48.506;8.870;2022-11-20T14:15:38;2.60;;;1.33;;
11000;SDS011;5553;48.506;8.870;2022-11-20T14:18:11;1.10;;;0.90;;
11000;SDS011;5553;48.506;8.870;2022-11-20T14:20:41;1.10;;;0.83;;
11000;SDS011;5553;48.506;8.870;2022-11-20T14:23:11;1.43;;;1.30;;
11000;SDS011;5553;48.506;8.870;2022-11-20T14:25:41;1.83;;;1.10;;
11000;SDS011;5553;48.506;8.870;2022-11-20T14:28:17;6.10;;;1.77;;
11000;SDS011;5553;48.506;8.870;2022-11-20T14:30:52;1.30;;;1.13;;
11000;SDS011;5553;48.506;8.870;2022-11-20T14:33:21;3.97;;;1.60;;
11000;SDS011;5553;48.506;8.870;2022-11-20T14:35:52;2.77;;;1.23;;
11000;SDS011;5553;48.506;8.870;2022-11-20T14:38:23;3.07;;;1.20;;
11000;SDS011;5553;48.506;8.870;2022-11-20T14:41:04;4.63;;;1.43;;
11000;SDS011;5553;48.506;8.870;2022-11-20T14:43:36;4.93;;;1.47;;
11000;SDS011;5553;48.506;8.870;2022-11-20T14:46:05;2.20;;;1.40;;
11000;SDS011;5553;48.506;8.870;2022-11-20T14:48:37;3.80;;;1.60;;
11000;SDS011;5553;48.506;8.870;2022-11-20T14:51:08;2.20;;;1.63;;
11000;SDS011;5553;48.506;8.870;2022-11-20T14:53:38;1.37;;;1.20;;
11000;SDS011;5553;48.506;8.870;2022-11-20T14:56:07;3.40;;;1.60;;
11000;SDS011;5553;48.506;8.870;2022-11-20T14:58:39;2.50;;;1.47;;
11000;SDS011;5553;48.506;8.870;2022-11-20T15:01:11;1.00;;;0.77;;
11000;SDS011;5553;48.506;8.870;2022-11-20T15:03:40;1.30;;;0.90;;
11000;SDS011;5553;48.506;8.870;2022-11-20T15:06:10;0.90;;;0.70;;
11000;SDS011;5553;48.506;8.870;2022-11-20T15:08:40;1.60;;;0.90;;
11000;SDS011;5553;48.506;8.870;2022-11-20T15:11:19;3.43;;;1.00;;
11000;SDS011;5553;48.506;8.870;2022-11-20T15:13:56;2.90;;;0.93;;
11000;SDS011;5553;48.506;8.870;2022-11-20T15:16:24;1.23;;;1.10;;
11000;SDS011;5553;48.506;8.870;2022-11-20T15:18:53;1.57;;;1.10;;
11000;SDS011;5553;48.506;8.870;2022-11-20T15:21:22;1.30;;;1.20;;
11000;SDS011;5553;48.506;8.870;2022-11-20T15:23:50;1.43;;;1.13;;
11000;SDS011;5553;48.506;8.870;2022-11-20T15:26:20;1.70;;;1.53;;
11000;SDS011;5553;48.506;8.870;2022-11-20T15:28:52;1.53;;;1.40;;
11000;SDS011;5553;48.506;8.870;2022-11-20T15:31:23;1.40;;;1.13;;
11000;SDS011;5553;48.506;8.870;2022-11-20T15:33:52;2.37;;;1.50;;
11000;SDS011;5553;48.506;8.870;2022-11-20T15:36:20;2.23;;;1.00;;